Hauptseite
METAR-TAF:

METAR-TAF

Flughäfen :

Militärflugplatz Leeuwarden

Leeuwarden, Niederlande

Breite: 53-13N, Länge: 005-46E, Höhe: 1 m

Beobachtung

Neuester Wetterbericht von vor 17 Minuten, um 10:30 UTC
Wind 10 kt aus Süd/Südwest, variierte zwischen Süd/Südost und Südwest
Temperatur 16°C
Luftfeuchtigkeit 77%
Luftdruck 1021 hPa
Sichtweite 10 km oder mehr
Leicht bewölkt in der Höhe von 1800 ft

METAR: EHLW 281030Z AUTO 20010KT 160V230 9999 FEW018 16/12 Q1021 BLU BECMG SCT020

Zeit: 12:47 (10:47 UTC)

Prognose

Neuester Wetterbericht von vor 2 Stunden und 31 Minuten, um 08:16 UTC
Gültige Prognose vom 28 um 09 UTC bis 28 um 21 UTC
Wind 8 kt aus Süd
Sichtweite 10 km oder mehr
keine Wolken unter 1500 m und keine Kumulonimbus oder Gewitterwolken
Zeitweise
vom 28 um 08 UTC bis 28 um 09 UTC
Aufgelockert bewölkt in der Höhe von 1200 ft

TAF: EHLW 280816Z 2809/2821 19008KT CAVOK TEMPO 2808/2809 SCT012

Wetterbeobachtungen und Prognosen von mehr als 4000 Flughäfen (METAR und TAF Bericht).

Die verfügbaren Stationen werden durch gelbe und rote Markierungen auf der Karte dargestellt.

Führen Sie die Maus auf sie, um den Namen der Station zu sehen.

Darauf klicken, um die Beobachtung von Wetterbeobachtungen und Prognosen zu sehen.

Um die Karte zu ändern : klicken Sie auf den grünen Tasten mit einem schwarzen Kreuz Zum Vergrößern, auf den grünen Button mit einem Gedankenstrich zu verkleinern, oder auf die grünen Pfeile für benachbarte Karten.


METAR-TAF: